Time;durP1;ratioP1;P1;durP2;ratioP2;P2;SDS_P1;SDS_P2;PMS_P1;PMS_P2;Temp;Humidity;BMP_temperature;BMP_pressure;BME280_temperature;BME280_humidity;BME280_pressure;Samples;Min_cycle;Max_cycle;Signal;HPM_P1;HPM_P2
2022/07/01 00:02:53;;;;;;;11.48;10.23;;;22.00;99.90;;;;;;6190127;28;20270;-67
2022/07/01 00:05:59;;;;;;;13.52;10.55;;;22.00;99.90;;;;;;6169479;28;20267;-67
2022/07/01 00:09:05;;;;;;;11.77;10.57;;;22.00;99.90;;;;;;6165780;29;20457;-67
2022/07/01 00:12:12;;;;;;;12.15;10.95;;;22.00;99.90;;;;;;6165921;29;20271;-67
2022/07/01 00:15:19;;;;;;;11.30;10.25;;;22.00;99.90;;;;;;6165904;29;20279;-67
2022/07/01 00:18:25;;;;;;;15.82;11.23;;;22.00;99.90;;;;;;6165909;28;20278;-67
2022/07/01 00:21:31;;;;;;;13.82;11.40;;;21.90;99.90;;;;;;6165735;28;20543;-67
2022/07/01 00:24:36;;;;;;;13.30;11.25;;;21.90;99.90;;;;;;6165254;29;20273;-67
2022/07/01 00:27:43;;;;;;;22.25;11.13;;;21.90;99.90;;;;;;6165579;29;20299;-67
2022/07/01 00:30:50;;;;;;;19.17;11.50;;;21.90;99.90;;;;;;6165143;29;20294;-67
2022/07/01 00:33:55;;;;;;;15.57;12.02;;;21.90;99.90;;;;;;6165078;29;20273;-67
2022/07/01 00:37:00;;;;;;;17.45;11.25;;;21.90;99.90;;;;;;6165396;29;20275;-67
2022/07/01 00:40:08;;;;;;;12.70;11.52;;;21.90;99.90;;;;;;6164936;29;20590;-67
2022/07/01 00:43:13;;;;;;;17.20;11.70;;;21.80;99.90;;;;;;6164995;28;20274;-67
2022/07/01 00:46:21;;;;;;;21.25;12.13;;;21.90;99.90;;;;;;6165100;29;20573;-67
2022/07/01 00:49:28;;;;;;;17.35;11.85;;;21.80;99.90;;;;;;6164870;29;20475;-67
2022/07/01 00:52:34;;;;;;;16.88;11.60;;;21.80;99.90;;;;;;6165082;29;20274;-67
2022/07/01 00:55:39;;;;;;;13.00;10.65;;;21.80;99.90;;;;;;6164782;28;20274;-67
2022/07/01 00:58:44;;;;;;;14.90;12.45;;;21.80;99.90;;;;;;6164966;29;20277;-67
2022/07/01 01:01:50;;;;;;;14.65;11.73;;;21.80;99.90;;;;;;6165251;28;20274;-67
2022/07/01 01:04:56;;;;;;;16.08;13.13;;;21.70;99.90;;;;;;6152100;29;20271;-67
2022/07/01 01:08:01;;;;;;;13.63;12.25;;;21.70;99.90;;;;;;6164207;28;20472;-67
2022/07/01 01:11:07;;;;;;;16.58;13.27;;;21.60;99.90;;;;;;6164205;29;20274;-67
2022/07/01 01:14:13;;;;;;;14.15;12.70;;;21.70;99.90;;;;;;6164249;29;20535;-67
2022/07/01 01:17:22;;;;;;;14.65;13.05;;;21.70;99.90;;;;;;6164461;29;20274;-67
2022/07/01 01:20:35;;;;;;;15.73;12.77;;;21.80;99.90;;;;;;6164114;29;20586;-67
2022/07/01 01:23:41;;;;;;;15.32;13.00;;;21.80;99.90;;;;;;6164359;29;20326;-67
2022/07/01 01:26:46;;;;;;;16.90;13.23;;;21.80;99.90;;;;;;6164301;29;20271;-67
2022/07/01 01:29:51;;;;;;;16.83;12.00;;;21.70;99.90;;;;;;6164200;29;20605;-67
2022/07/01 01:32:57;;;;;;;18.73;13.02;;;21.70;99.90;;;;;;6163976;29;20274;-67
2022/07/01 01:36:05;;;;;;;14.88;13.25;;;21.60;99.90;;;;;;6164234;29;20274;-67
2022/07/01 01:39:11;;;;;;;16.25;14.43;;;21.60;99.90;;;;;;6164214;29;20278;-67
2022/07/01 01:42:17;;;;;;;14.93;13.48;;;21.60;99.90;;;;;;6164277;29;20274;-67
2022/07/01 01:45:22;;;;;;;17.80;13.48;;;21.70;99.90;;;;;;6163984;29;20274;-67
2022/07/01 01:48:28;;;;;;;14.00;12.70;;;21.60;99.90;;;;;;6164069;29;20274;-67
2022/07/01 01:51:35;;;;;;;14.48;12.93;;;21.60;99.90;;;;;;6163733;29;20274;-67
2022/07/01 01:54:40;;;;;;;12.30;11.10;;;21.50;99.90;;;;;;6163358;29;20275;-67
2022/07/01 01:57:46;;;;;;;15.40;10.52;;;21.40;99.90;;;;;;6164047;29;20274;-67
2022/07/01 02:00:51;;;;;;;12.80;10.40;;;21.30;99.90;;;;;;6164019;29;20460;-67
2022/07/01 02:03:58;;;;;;;11.75;10.80;;;21.30;99.90;;;;;;6163426;29;20271;-67
2022/07/01 02:07:06;;;;;;;11.32;10.30;;;21.30;99.90;;;;;;6163549;28;20274;-67
2022/07/01 02:10:12;;;;;;;11.23;10.07;;;21.30;99.90;;;;;;6189918;28;20310;-67
2022/07/01 02:13:20;;;;;;;12.70;10.25;;;21.30;99.90;;;;;;6192727;28;20445;-67
2022/07/01 02:16:25;;;;;;;11.13;10.00;;;21.30;99.90;;;;;;6192543;28;20274;-67
2022/07/01 02:19:30;;;;;;;11.52;10.43;;;21.30;99.90;;;;;;6192527;28;20277;-67
2022/07/01 02:22:37;;;;;;;10.77;9.82;;;21.30;99.90;;;;;;6191996;28;20298;-67
2022/07/01 02:25:43;;;;;;;12.30;11.07;;;21.20;99.90;;;;;;6191784;28;20273;-67
2022/07/01 02:28:49;;;;;;;12.02;10.85;;;21.20;99.90;;;;;;6192243;28;20273;-67
2022/07/01 02:31:54;;;;;;;11.65;10.43;;;21.20;99.90;;;;;;6191674;28;20277;-67
2022/07/01 02:34:59;;;;;;;11.88;10.75;;;21.30;99.90;;;;;;6191718;28;20464;-67
2022/07/01 02:38:08;;;;;;;12.07;10.80;;;21.30;99.90;;;;;;6191636;28;20293;-67
2022/07/01 02:41:13;;;;;;;12.63;11.43;;;21.30;99.90;;;;;;6191968;28;20273;-67
2022/07/01 02:44:18;;;;;;;12.15;11.05;;;21.20;99.90;;;;;;6191584;28;20439;-67
2022/07/01 02:47:24;;;;;;;13.45;12.15;;;21.30;99.90;;;;;;6191320;28;20273;-67
2022/07/01 02:50:30;;;;;;;13.27;11.85;;;21.30;99.90;;;;;;6191518;28;20293;-67
2022/07/01 02:53:36;;;;;;;14.10;12.68;;;21.20;99.90;;;;;;6191283;28;20275;-68
2022/07/01 02:56:41;;;;;;;14.45;12.50;;;21.30;99.90;;;;;;6191643;28;20270;-68
2022/07/01 02:59:47;;;;;;;16.35;14.02;;;21.30;99.90;;;;;;6191247;28;20298;-68
2022/07/01 03:02:52;;;;;;;17.88;13.65;;;21.30;99.90;;;;;;6191585;28;20278;-68
2022/07/01 03:05:58;;;;;;;16.90;13.40;;;21.30;99.90;;;;;;6170580;28;20267;-68
2022/07/01 03:09:05;;;;;;;25.83;14.98;;;21.30;99.90;;;;;;6167504;28;20302;-68
2022/07/01 03:12:28;;;;;;;22.15;14.45;;;21.40;99.90;;;;;;6166925;29;20310;-68
2022/07/01 03:15:34;;;;;;;22.15;14.70;;;21.50;99.90;;;;;;6167081;29;20271;-68
2022/07/01 03:18:40;;;;;;;22.33;15.25;;;21.60;99.90;;;;;;6167141;28;20278;-68
2022/07/01 03:21:45;;;;;;;23.05;15.75;;;21.60;99.90;;;;;;6167251;29;20275;-68
2022/07/01 03:24:52;;;;;;;22.10;16.13;;;21.50;99.90;;;;;;6166566;29;20274;-68
2022/07/01 03:27:57;;;;;;;22.13;15.88;;;21.50;99.90;;;;;;6166526;29;20275;-68
2022/07/01 03:31:02;;;;;;;19.67;13.75;;;21.50;99.90;;;;;;6166529;29;20294;-68
2022/07/01 03:34:08;;;;;;;16.83;13.43;;;21.40;99.90;;;;;;6166889;29;20266;-67
2022/07/01 03:37:15;;;;;;;13.45;12.05;;;21.40;99.90;;;;;;6166896;28;20274;-67
2022/07/01 03:40:21;;;;;;;13.98;12.27;;;21.40;99.90;;;;;;6165757;29;20275;-67
2022/07/01 03:43:27;;;;;;;14.40;12.00;;;21.40;99.90;;;;;;6166478;28;20275;-67
2022/07/01 03:46:34;;;;;;;13.55;12.20;;;21.40;99.90;;;;;;6166621;29;20277;-67
2022/07/01 03:49:39;;;;;;;15.55;13.32;;;21.40;99.90;;;;;;6166501;29;20279;-67
2022/07/01 03:52:45;;;;;;;16.27;13.40;;;21.40;99.90;;;;;;6166039;29;20384;-67
2022/07/01 03:55:50;;;;;;;21.48;14.70;;;21.50;99.90;;;;;;6165773;29;20290;-67
2022/07/01 03:58:55;;;;;;;21.50;14.48;;;21.50;99.90;;;;;;6166243;29;20274;-67
2022/07/01 04:02:01;;;;;;;16.65;13.27;;;21.60;99.90;;;;;;6165927;28;20342;-67
2022/07/01 04:05:07;;;;;;;19.73;14.00;;;21.60;99.90;;;;;;6166132;29;20270;-67
2022/07/01 04:08:14;;;;;;;18.63;13.85;;;21.60;99.90;;;;;;6172364;28;20306;-67
2022/07/01 04:11:20;;;;;;;23.98;15.45;;;21.60;99.90;;;;;;6189677;28;20294;-67
2022/07/01 04:14:26;;;;;;;13.05;11.00;;;21.60;99.90;;;;;;6189508;28;20294;-67
2022/07/01 04:17:31;;;;;;;15.52;9.77;;;21.60;99.90;;;;;;6189834;28;20448;-67
2022/07/01 04:20:36;;;;;;;14.95;9.07;;;21.60;99.90;;;;;;6189572;28;20456;-66
2022/07/01 04:23:41;;;;;;;11.68;7.70;;;21.70;99.90;;;;;;6189543;28;20273;-67
2022/07/01 04:26:48;;;;;;;11.18;7.20;;;21.70;99.90;;;;;;6189526;28;20269;-67
2022/07/01 04:29:53;;;;;;;7.18;6.53;;;21.70;99.90;;;;;;6189500;28;20278;-67
2022/07/01 04:32:58;;;;;;;11.75;6.63;;;21.70;99.90;;;;;;6188815;28;20299;-67
2022/07/01 04:36:04;;;;;;;8.88;6.65;;;21.60;99.90;;;;;;6189228;28;20278;-67
2022/07/01 04:39:09;;;;;;;11.50;6.55;;;21.60;99.90;;;;;;6189206;28;20274;-66
2022/07/01 04:42:17;;;;;;;13.32;5.97;;;21.60;99.90;;;;;;6189042;28;20582;-66
2022/07/01 04:45:22;;;;;;;10.27;5.97;;;21.60;99.90;;;;;;6188709;28;20273;-67
2022/07/01 04:48:28;;;;;;;8.07;5.40;;;21.50;99.90;;;;;;6188973;28;20286;-67
2022/07/01 04:51:34;;;;;;;8.13;5.80;;;21.40;99.90;;;;;;6188700;28;20298;-67
2022/07/01 04:54:40;;;;;;;9.35;5.80;;;21.50;99.90;;;;;;6188882;28;20549;-67
2022/07/01 04:57:47;;;;;;;11.68;5.63;;;21.50;99.90;;;;;;6188824;28;20273;-67
2022/07/01 05:00:52;;;;;;;12.05;5.78;;;21.60;99.90;;;;;;6188809;28;20286;-67
2022/07/01 05:03:58;;;;;;;10.07;5.90;;;21.60;99.90;;;;;;6183750;28;20272;-67
2022/07/01 05:07:04;;;;;;;11.57;5.05;;;21.60;99.90;;;;;;6164790;29;20274;-67
2022/07/01 05:10:11;;;;;;;11.60;5.88;;;21.60;99.90;;;;;;6164453;28;20302;-67
2022/07/01 05:13:19;;;;;;;6.07;5.55;;;21.60;99.90;;;;;;6164088;29;20391;-67
2022/07/01 05:16:24;;;;;;;10.68;5.75;;;21.60;99.90;;;;;;6164809;28;20271;-67
2022/07/01 05:22:53;;;;;;;11.88;6.53;;;21.60;99.90;;;;;;6164711;28;20278;-67
2022/07/01 05:25:59;;;;;;;11.07;6.53;;;21.60;99.90;;;;;;6164459;29;20279;-67
2022/07/01 05:29:06;;;;;;;10.32;6.25;;;21.70;99.90;;;;;;6164010;29;20274;-67
2022/07/01 05:32:11;;;;;;;14.95;6.57;;;21.60;99.90;;;;;;6164184;28;20290;-67
2022/07/01 05:35:17;;;;;;;8.25;6.10;;;21.60;99.90;;;;;;6164129;28;20274;-67
2022/07/01 05:38:22;;;;;;;11.35;6.50;;;21.60;99.90;;;;;;6164125;28;20274;-67
2022/07/01 05:41:27;;;;;;;11.82;7.85;;;21.60;99.90;;;;;;6164179;29;20274;-67
2022/07/01 05:44:34;;;;;;;15.00;9.50;;;21.60;99.90;;;;;;6167490;28;20565;-67
2022/07/01 05:47:40;;;;;;;11.23;6.32;;;21.60;99.90;;;;;;6168627;29;20274;-67
2022/07/01 05:50:46;;;;;;;10.77;6.72;;;21.60;99.90;;;;;;6169155;28;20274;-67
2022/07/01 05:53:52;;;;;;;11.20;6.97;;;21.60;99.90;;;;;;6168555;29;20294;-67
2022/07/01 05:56:57;;;;;;;11.02;6.80;;;21.60;99.90;;;;;;6168486;29;20279;-67
2022/07/01 06:00:05;;;;;;;14.20;7.10;;;21.60;99.90;;;;;;6168875;29;20452;-67
2022/07/01 06:03:19;;;;;;;11.75;7.22;;;21.60;99.90;;;;;;6168746;29;20367;-67
2022/07/01 06:06:25;;;;;;;14.82;7.40;;;21.60;99.90;;;;;;6144645;29;20283;-67
2022/07/01 06:09:30;;;;;;;9.13;6.80;;;21.60;99.90;;;;;;6143792;29;20584;-67
2022/07/01 06:12:36;;;;;;;8.45;6.30;;;21.60;99.90;;;;;;6142986;29;20299;-67
2022/07/01 06:15:42;;;;;;;10.95;7.10;;;21.70;99.90;;;;;;6143207;29;20279;-67
2022/07/01 06:18:48;;;;;;;11.57;6.65;;;21.70;99.90;;;;;;6142635;29;20275;-68
2022/07/01 06:21:53;;;;;;;9.40;6.40;;;21.60;99.90;;;;;;6142428;29;20279;-68
2022/07/01 06:24:58;;;;;;;11.70;7.13;;;21.70;99.90;;;;;;6142302;29;20275;-68
2022/07/01 06:28:04;;;;;;;11.32;7.38;;;21.60;99.90;;;;;;6142922;29;20466;-67
2022/07/01 06:31:11;;;;;;;14.00;7.07;;;21.60;99.90;;;;;;6142795;29;20275;-68
2022/07/01 06:34:16;;;;;;;9.98;6.40;;;21.70;99.90;;;;;;6142711;29;20294;-67
2022/07/01 06:37:21;;;;;;;11.43;6.00;;;21.60;99.90;;;;;;6142478;29;20464;-67
2022/07/01 06:40:27;;;;;;;8.88;5.43;;;21.60;99.90;;;;;;6142625;29;20275;-67
2022/07/01 06:43:32;;;;;;;10.88;6.25;;;21.60;99.90;;;;;;6142270;29;20475;-67
2022/07/01 06:46:39;;;;;;;10.20;6.15;;;21.50;99.90;;;;;;6142069;29;20280;-67
2022/07/01 06:49:44;;;;;;;8.60;6.03;;;21.60;99.90;;;;;;6142027;29;20275;-67
2022/07/01 06:52:49;;;;;;;10.75;5.88;;;21.60;99.90;;;;;;6142286;29;20294;-67
2022/07/01 06:55:54;;;;;;;12.73;6.53;;;21.50;99.90;;;;;;6141616;29;20279;-68
2022/07/01 06:59:00;;;;;;;11.65;5.93;;;21.50;99.90;;;;;;6141851;29;20275;-68
2022/07/01 07:02:07;;;;;;;8.95;5.60;;;21.50;99.90;;;;;;6141803;29;20275;-67
2022/07/01 07:05:13;;;;;;;6.60;5.07;;;21.40;99.90;;;;;;6156271;29;20372;-67
2022/07/01 07:08:19;;;;;;;4.95;4.53;;;21.50;99.90;;;;;;6126843;28;1147207;-67
2022/07/01 07:11:25;;;;;;;8.38;4.45;;;21.50;99.90;;;;;;6167238;29;20436;-67
2022/07/01 07:14:31;;;;;;;6.38;4.43;;;21.40;99.90;;;;;;6166695;29;20286;-66
2022/07/01 07:17:37;;;;;;;5.15;4.78;;;21.30;99.90;;;;;;6166991;29;20274;-67
2022/07/01 07:20:42;;;;;;;6.55;5.30;;;21.30;99.90;;;;;;6166989;29;20574;-67
2022/07/01 07:23:48;;;;;;;11.88;6.25;;;21.30;99.90;;;;;;6167128;28;20278;-67
2022/07/01 07:26:53;;;;;;;11.07;6.90;;;21.30;99.90;;;;;;6166949;29;20274;-67
2022/07/01 07:29:58;;;;;;;12.35;6.53;;;21.30;99.90;;;;;;6166233;29;20535;-68
2022/07/01 07:33:05;;;;;;;12.88;6.95;;;21.30;99.90;;;;;;6166827;28;20294;-67
2022/07/01 07:36:11;;;;;;;10.85;8.15;;;21.30;99.90;;;;;;6166356;29;20271;-68
2022/07/01 07:39:16;;;;;;;14.20;8.77;;;21.30;99.90;;;;;;6166677;28;20274;-68
2022/07/01 07:42:21;;;;;;;15.43;8.10;;;21.30;99.90;;;;;;6166549;29;20274;-67
2022/07/01 07:45:27;;;;;;;15.77;9.23;;;21.30;99.90;;;;;;6166389;28;20278;-67
2022/07/01 07:48:34;;;;;;;15.50;8.50;;;21.30;99.90;;;;;;6166363;29;20350;-67
2022/07/01 07:51:39;;;;;;;23.10;9.18;;;21.40;99.90;;;;;;6166192;29;20275;-67
2022/07/01 07:54:45;;;;;;;19.23;8.65;;;21.30;99.90;;;;;;6166091;29;20298;-67
2022/07/01 07:57:50;;;;;;;16.83;8.55;;;21.40;99.90;;;;;;6166008;29;20561;-67
2022/07/01 08:00:55;;;;;;;18.60;9.07;;;21.40;99.90;;;;;;6166140;28;20279;-67
2022/07/01 08:04:02;;;;;;;16.80;8.90;;;21.40;99.90;;;;;;6165655;28;20558;-67
2022/07/01 08:07:07;;;;;;;14.88;8.38;;;21.40;99.90;;;;;;6165034;28;20279;-68
2022/07/01 08:10:14;;;;;;;15.57;8.60;;;21.30;99.90;;;;;;6187389;28;20322;-68
2022/07/01 08:13:20;;;;;;;15.75;8.45;;;21.40;99.90;;;;;;6189558;28;20298;-68
2022/07/01 08:16:25;;;;;;;16.65;8.55;;;21.30;99.90;;;;;;6189461;28;20273;-68
2022/07/01 08:19:32;;;;;;;17.92;8.30;;;21.30;99.90;;;;;;6189435;28;20293;-68
2022/07/01 08:22:37;;;;;;;16.40;9.07;;;21.20;99.90;;;;;;6189419;28;20487;-68
2022/07/01 08:25:43;;;;;;;19.02;8.75;;;21.20;99.90;;;;;;6189422;28;20277;-68
2022/07/01 08:28:48;;;;;;;17.73;8.13;;;21.20;99.90;;;;;;6189032;28;20274;-68
2022/07/01 08:31:55;;;;;;;12.95;7.45;;;21.30;99.90;;;;;;6188869;28;20565;-68
2022/07/01 08:35:01;;;;;;;14.90;7.85;;;21.30;99.90;;;;;;6188682;28;20293;-68
2022/07/01 08:38:07;;;;;;;15.10;8.20;;;21.30;99.90;;;;;;6188715;28;20278;-68
2022/07/01 08:41:14;;;;;;;18.40;8.38;;;21.30;99.90;;;;;;6188665;28;20269;-68
2022/07/01 08:44:20;;;;;;;14.73;8.65;;;21.40;99.90;;;;;;6189120;28;20277;-68
2022/07/01 08:47:27;;;;;;;20.02;8.50;;;21.40;99.90;;;;;;6188523;28;20278;-68
2022/07/01 08:50:38;;;;;;;14.13;8.05;;;21.50;99.90;;;;;;6188960;28;20273;-68
2022/07/01 08:53:43;;;;;;;18.60;7.90;;;21.50;99.90;;;;;;6188478;28;20293;-68
2022/07/01 08:56:48;;;;;;;14.23;7.80;;;21.60;99.90;;;;;;6188498;28;20377;-68
2022/07/01 09:00:04;;;;;;;18.63;7.95;;;21.50;99.90;;;;;;6188993;28;20274;-68
2022/07/01 09:03:13;;;;;;;17.38;8.13;;;21.60;99.90;;;;;;6188642;28;20274;-68
2022/07/01 09:06:22;;;;;;;15.43;9.07;;;21.60;99.90;;;;;;6165611;28;20270;-68
2022/07/01 09:09:27;;;;;;;19.02;9.45;;;21.60;99.90;;;;;;6164353;29;20298;-67
2022/07/01 09:12:40;;;;;;;15.07;8.88;;;21.50;99.90;;;;;;6164405;28;20278;-67
2022/07/01 09:15:46;;;;;;;16.30;8.38;;;21.60;99.90;;;;;;6164410;29;20290;-68
2022/07/01 09:19:01;;;;;;;13.23;9.07;;;21.60;99.90;;;;;;6164462;29;20558;-68
2022/07/01 09:22:07;;;;;;;24.13;9.25;;;21.70;99.90;;;;;;6164129;29;20266;-68
2022/07/01 09:25:15;;;;;;;11.93;9.02;;;21.60;99.90;;;;;;6164193;29;20278;-68
2022/07/01 09:28:22;;;;;;;13.00;9.45;;;21.80;99.90;;;;;;6164382;29;20549;-68
2022/07/01 09:31:34;;;;;;;14.68;9.02;;;21.80;99.90;;;;;;6164004;29;20275;-68
2022/07/01 09:34:43;;;;;;;14.35;9.02;;;21.80;99.90;;;;;;6163951;29;20556;-67
2022/07/01 09:37:56;;;;;;;12.52;8.20;;;21.80;99.90;;;;;;6164478;28;20270;-67
2022/07/01 09:41:03;;;;;;;10.15;8.60;;;22.00;99.90;;;;;;6164206;29;20559;-68
2022/07/01 09:44:11;;;;;;;14.45;8.50;;;22.10;99.90;;;;;;6164279;29;20278;-68
2022/07/01 09:47:16;;;;;;;12.40;9.23;;;22.10;99.90;;;;;;6164174;29;20283;-68
2022/07/01 09:50:21;;;;;;;10.93;8.40;;;22.20;99.90;;;;;;6164255;28;20278;-67
2022/07/01 09:53:28;;;;;;;18.25;9.80;;;22.20;99.90;;;;;;6164145;29;20274;-67
2022/07/01 09:56:33;;;;;;;14.85;8.48;;;22.30;99.90;;;;;;6163944;29;20479;-68
2022/07/01 09:59:39;;;;;;;13.10;8.82;;;22.50;99.90;;;;;;6163756;28;20476;-67
2022/07/01 10:02:45;;;;;;;13.93;8.60;;;22.70;99.90;;;;;;6164147;28;20275;-68
2022/07/01 10:05:55;;;;;;;18.10;9.20;;;22.70;99.90;;;;;;6163331;29;20467;-67
2022/07/01 10:09:15;;;;;;;15.70;8.88;;;22.80;99.90;;;;;;6176232;28;20467;-68
2022/07/01 10:12:40;;;;;;;17.65;9.43;;;22.90;99.90;;;;;;6187688;28;20273;-68
2022/07/01 10:15:48;;;;;;;14.10;9.20;;;22.90;99.90;;;;;;6187470;28;20294;-67
2022/07/01 10:18:56;;;;;;;16.70;9.27;;;22.90;99.90;;;;;;6187382;28;20275;-68
2022/07/01 10:22:18;;;;;;;12.77;8.98;;;22.90;99.90;;;;;;6187630;28;20278;-68
2022/07/01 10:25:49;;;;;;;15.90;8.65;;;23.00;99.90;;;;;;6187580;28;20278;-68
2022/07/01 10:28:55;;;;;;;13.88;8.75;;;22.90;99.90;;;;;;6158137;28;20278;-67
2022/07/01 10:32:02;;;;;;;9.25;8.43;;;23.00;99.90;;;;;;6191949;28;20441;-67
2022/07/01 10:35:09;;;;;;;16.35;8.52;;;23.10;99.90;;;;;;6191734;28;20447;-68
2022/07/01 10:38:14;;;;;;;14.23;7.85;;;23.10;99.90;;;;;;6191784;28;20277;-68
2022/07/01 10:41:29;;;;;;;12.60;7.80;;;23.10;99.90;;;;;;6191108;28;20453;-67
2022/07/01 10:44:36;;;;;;;10.30;7.55;;;23.20;99.90;;;;;;6190977;28;20270;-68
2022/07/01 10:47:43;;;;;;;11.73;8.00;;;23.10;99.90;;;;;;6191421;28;20277;-67
2022/07/01 10:50:49;;;;;;;9.57;8.05;;;23.30;99.90;;;;;;6191183;28;20274;-67
2022/07/01 10:53:54;;;;;;;11.35;8.13;;;23.40;99.90;;;;;;6191267;28;20273;-67
2022/07/01 10:57:34;;;;;;;14.90;8.15;;;23.40;99.90;;;;;;6191251;28;20624;-67
2022/07/01 11:00:43;;;;;;;12.90;8.38;;;23.40;99.90;;;;;;6190800;28;20269;-67
2022/07/01 11:03:48;;;;;;;16.95;9.40;;;23.50;99.90;;;;;;6187550;28;20267;-67
2022/07/01 11:06:54;;;;;;;20.25;8.40;;;23.50;99.90;;;;;;6167496;28;20278;-68
2022/07/01 11:10:03;;;;;;;11.50;7.95;;;23.60;99.90;;;;;;6166965;28;20307;-67
2022/07/01 11:13:15;;;;;;;15.45;7.13;;;23.40;99.90;;;;;;6166713;29;20274;-68
2022/07/01 11:16:20;;;;;;;9.82;7.97;;;23.40;99.90;;;;;;6166779;28;20298;-68
2022/07/01 11:19:26;;;;;;;9.57;8.60;;;23.30;99.90;;;;;;6166860;29;20279;-68
2022/07/01 11:22:35;;;;;;;13.90;8.20;;;23.50;99.90;;;;;;6166647;29;20275;-67
2022/07/01 11:25:41;;;;;;;12.10;8.40;;;23.40;99.90;;;;;;6166955;29;20542;-67
2022/07/01 11:28:47;;;;;;;13.05;8.77;;;23.40;99.90;;;;;;6166804;29;20674;-67
2022/07/01 11:31:53;;;;;;;12.57;8.43;;;23.50;99.90;;;;;;6166546;29;20280;-68
2022/07/01 11:39:21;;;;;;;8.98;8.07;;;23.70;99.90;;;;;;6166630;29;20293;-67
2022/07/01 11:42:02;;;;;;;14.10;7.10;;;23.70;99.90;;;;;;6165238;28;20294;-67
2022/07/01 11:45:11;;;;;;;9.90;7.03;;;23.80;99.90;;;;;;6166212;28;20274;-67
2022/07/01 11:48:36;;;;;;;17.60;8.23;;;23.80;99.90;;;;;;6166219;29;20282;-67
2022/07/01 11:51:43;;;;;;;17.10;8.32;;;23.80;99.90;;;;;;6166312;29;20430;-67
2022/07/01 11:54:51;;;;;;;7.95;7.25;;;23.80;99.90;;;;;;6166191;29;20306;-67
2022/07/01 11:57:56;;;;;;;8.10;7.30;;;23.70;99.90;;;;;;6165930;29;20294;-68
2022/07/01 12:01:02;;;;;;;9.10;7.90;;;23.70;99.90;;;;;;6165658;29;20278;-67
2022/07/01 12:04:10;;;;;;;14.43;8.05;;;23.80;99.90;;;;;;6166098;29;20274;-67
2022/07/01 12:07:21;;;;;;;12.82;8.05;;;23.80;99.90;;;;;;6165786;29;20278;-68
2022/07/01 12:10:27;;;;;;;15.88;7.65;;;23.90;99.90;;;;;;6189655;28;20298;-68
2022/07/01 12:13:38;;;;;;;8.50;6.70;;;24.00;99.90;;;;;;6189949;28;20270;-67
2022/07/01 12:16:45;;;;;;;30.48;9.77;;;24.00;99.90;;;;;;6189080;28;20458;-68
2022/07/01 12:19:51;;;;;;;14.82;8.27;;;23.90;99.90;;;;;;6189559;28;20274;-67
2022/07/01 12:23:12;;;;;;;21.40;8.65;;;23.80;99.90;;;;;;6189574;28;20278;-68
2022/07/01 12:26:17;;;;;;;12.05;7.82;;;23.90;99.90;;;;;;6189440;28;20291;-68
2022/07/01 12:29:24;;;;;;;7.68;6.97;;;23.90;99.90;;;;;;6189433;28;20274;-68
2022/07/01 12:32:32;;;;;;;9.68;7.63;;;23.90;99.90;;;;;;6189403;28;20269;-68
2022/07/01 12:35:42;;;;;;;10.10;8.18;;;24.00;99.90;;;;;;6189099;28;20273;-67
2022/07/01 12:39:02;;;;;;;14.32;8.98;;;24.00;99.90;;;;;;6188857;28;20289;-67
2022/07/01 12:42:07;;;;;;;10.75;8.68;;;24.10;99.90;;;;;;6188897;28;20274;-68
2022/07/01 12:45:14;;;;;;;10.98;8.68;;;24.00;99.90;;;;;;6188692;28;20274;-67
2022/07/01 12:48:21;;;;;;;14.15;8.20;;;24.00;99.90;;;;;;6188862;28;20459;-67
2022/07/01 12:51:33;;;;;;;9.13;8.23;;;24.00;99.90;;;;;;6188053;28;20273;-68
2022/07/01 12:54:38;;;;;;;8.52;7.70;;;24.00;99.90;;;;;;6188389;28;20304;-68
2022/07/01 12:57:44;;;;;;;9.13;7.93;;;24.00;99.90;;;;;;6188627;28;20293;-69
2022/07/01 13:00:52;;;;;;;8.98;7.85;;;24.00;99.90;;;;;;6188623;28;20273;-68
2022/07/01 13:03:59;;;;;;;9.00;7.93;;;24.10;99.90;;;;;;6183746;28;20266;-68
2022/07/01 13:07:05;;;;;;;8.35;7.60;;;24.10;99.90;;;;;;6164876;28;20577;-68
2022/07/01 13:10:13;;;;;;;9.02;7.80;;;23.90;99.90;;;;;;6164369;28;20306;-67
2022/07/01 13:13:18;;;;;;;10.10;8.07;;;24.00;99.90;;;;;;6164674;29;20271;-68
2022/07/01 13:16:42;;;;;;;8.52;7.65;;;24.10;99.90;;;;;;6164312;29;20258;-68
2022/07/01 13:19:48;;;;;;;13.68;7.57;;;24.20;99.90;;;;;;6164064;29;20600;-68
2022/07/01 13:22:54;;;;;;;9.52;7.28;;;24.30;99.90;;;;;;6164213;28;20274;-68
2022/07/01 13:25:59;;;;;;;8.20;7.47;;;24.30;99.90;;;;;;6164605;28;20274;-67
2022/07/01 13:29:04;;;;;;;9.00;7.97;;;24.30;99.90;;;;;;6164305;28;20283;-68
2022/07/01 13:32:11;;;;;;;9.60;7.80;;;24.30;99.90;;;;;;6163931;29;20274;-67
2022/07/01 13:35:17;;;;;;;12.05;7.35;;;24.30;99.90;;;;;;6163619;29;20270;-67
2022/07/01 13:38:22;;;;;;;8.82;7.93;;;24.30;99.90;;;;;;6163529;29;20294;-68
2022/07/01 13:41:28;;;;;;;10.93;8.15;;;24.30;99.90;;;;;;6164132;28;20378;-68
2022/07/01 13:44:33;;;;;;;9.18;8.25;;;24.10;99.90;;;;;;6163665;29;20270;-68
2022/07/01 13:47:38;;;;;;;12.82;9.18;;;24.00;99.90;;;;;;6164133;29;20279;-68
2022/07/01 13:50:45;;;;;;;9.85;7.80;;;24.20;99.90;;;;;;6163983;28;20538;-69
2022/07/01 13:53:50;;;;;;;10.85;8.30;;;24.20;99.90;;;;;;6163939;29;20274;-68
2022/07/01 13:56:56;;;;;;;9.50;8.30;;;24.10;99.90;;;;;;6163441;29;20461;-69
2022/07/01 14:00:01;;;;;;;12.75;8.52;;;24.20;99.90;;;;;;6163919;29;20294;-68
2022/07/01 14:03:14;;;;;;;8.40;7.53;;;24.10;99.90;;;;;;6163519;28;20274;-69
2022/07/01 14:06:21;;;;;;;9.13;8.10;;;24.40;99.90;;;;;;6167751;29;20271;-69
2022/07/01 14:09:26;;;;;;;10.02;7.70;;;24.50;99.90;;;;;;6184066;28;20310;-69
2022/07/01 14:12:32;;;;;;;11.00;7.50;;;25.30;99.90;;;;;;6191875;28;20458;-68
2022/07/01 14:15:37;;;;;;;8.73;7.80;;;25.50;99.90;;;;;;6192270;28;20277;-69
2022/07/01 14:18:42;;;;;;;12.48;8.00;;;25.30;99.90;;;;;;6191946;28;20293;-69
2022/07/01 14:21:52;;;;;;;11.90;6.88;;;25.10;99.90;;;;;;6192195;28;20457;-68
2022/07/01 14:24:57;;;;;;;9.10;7.90;;;25.20;99.90;;;;;;6191584;28;20275;-68
2022/07/01 14:28:02;;;;;;;8.38;7.63;;;25.30;99.90;;;;;;6191603;28;20561;-68
2022/07/01 14:31:08;;;;;;;8.98;7.60;;;25.30;99.90;;;;;;6191722;28;20277;-68
2022/07/01 14:34:13;;;;;;;9.55;7.65;;;25.50;99.90;;;;;;6191600;28;20274;-67
2022/07/01 14:37:20;;;;;;;7.55;6.93;;;25.60;99.90;;;;;;6191274;28;20612;-67
2022/07/01 14:40:26;;;;;;;8.85;6.93;;;25.30;99.90;;;;;;6191609;28;20299;-67
2022/07/01 14:43:31;;;;;;;10.60;7.00;;;25.20;99.90;;;;;;6191496;28;20282;-68
2022/07/01 14:46:36;;;;;;;10.73;7.18;;;25.50;99.90;;;;;;6191321;28;20273;-68
2022/07/01 14:49:44;;;;;;;11.05;7.30;;;25.90;99.90;;;;;;6191092;28;20282;-69
2022/07/01 14:52:51;;;;;;;9.35;6.97;;;26.50;99.90;;;;;;6191357;28;20273;-69
2022/07/01 14:55:56;;;;;;;7.70;6.43;;;26.80;99.90;;;;;;6190827;28;20283;-68
2022/07/01 14:59:01;;;;;;;11.15;6.32;;;27.10;99.90;;;;;;6190515;28;20297;-67
2022/07/01 15:02:14;;;;;;;6.95;6.55;;;26.70;99.90;;;;;;6191017;28;20553;-68
2022/07/01 15:05:19;;;;;;;10.90;6.93;;;26.40;99.90;;;;;;6175782;28;20267;-68
2022/07/01 15:08:26;;;;;;;8.38;6.68;;;26.40;99.90;;;;;;6166934;28;20299;-67
2022/07/01 15:11:32;;;;;;;8.15;7.00;;;26.40;99.90;;;;;;6167331;28;20278;-68
2022/07/01 15:14:38;;;;;;;6.95;6.35;;;26.30;99.90;;;;;;6166427;28;20279;-68
2022/07/01 15:17:46;;;;;;;7.80;7.13;;;26.10;99.90;;;;;;6166867;29;20274;-68
2022/07/01 15:20:51;;;;;;;8.07;7.22;;;26.00;99.90;;;;;;6167082;29;20323;-68
2022/07/01 15:23:58;;;;;;;9.45;6.68;;;25.70;99.90;;;;;;6166511;29;20270;-68
2022/07/01 15:27:05;;;;;;;7.85;7.07;;;26.70;99.90;;;;;;6166811;29;20275;-68
2022/07/01 15:30:12;;;;;;;6.93;6.30;;;27.60;99.90;;;;;;6166633;28;20278;-68
2022/07/01 15:33:17;;;;;;;7.70;7.00;;;28.30;99.90;;;;;;6166681;28;20279;-68
2022/07/01 15:36:23;;;;;;;7.95;7.18;;;28.20;99.90;;;;;;6166621;29;20270;-68
2022/07/01 15:39:29;;;;;;;7.63;7.00;;;28.00;99.90;;;;;;6166591;28;20298;-68
2022/07/01 15:42:34;;;;;;;7.50;6.88;;;28.20;99.90;;;;;;6166016;29;20279;-68
2022/07/01 15:45:41;;;;;;;7.03;6.63;;;28.40;99.90;;;;;;6166359;29;20274;-68
2022/07/01 15:48:46;;;;;;;7.80;6.97;;;28.10;99.90;;;;;;6166574;28;20274;-68
2022/07/01 15:51:51;;;;;;;7.97;7.28;;;27.60;99.90;;;;;;6165647;29;20279;-68
2022/07/01 15:55:00;;;;;;;8.15;7.43;;;27.20;99.90;;;;;;6165830;28;20274;-68
2022/07/01 15:58:06;;;;;;;9.10;7.95;;;26.90;99.90;;;;;;6166023;28;20274;-67
2022/07/01 16:01:11;;;;;;;8.52;7.10;;;26.70;99.90;;;;;;6166094;28;20294;-67
2022/07/01 16:04:17;;;;;;;8.82;7.30;;;26.70;99.90;;;;;;6165717;29;20342;-67
2022/07/01 16:07:24;;;;;;;8.23;7.03;;;26.60;99.90;;;;;;6165420;29;20278;-67